Time;durP1;ratioP1;P1;durP2;ratioP2;P2;SDS_P1;SDS_P2;PMS_P1;PMS_P2;Temp;Humidity;BMP_temperature;BMP_pressure;BME280_temperature;BME280_humidity;BME280_pressure;Samples;Min_cycle;Max_cycle;Signal;HPM_P1;HPM_P2
2024/03/08 00:00:14;;;;;;;41.07;23.07;;;;;;;4.29;57.88;100968.47;6123159;23;97351;-79
2024/03/08 00:02:44;;;;;;;41.63;23.53;;;;;;;4.43;57.60;100958.13;6121513;23;97136;-78
2024/03/08 00:05:10;;;;;;;38.93;22.33;;;;;;;4.28;57.73;100967.63;6071658;23;97147;-78
2024/03/08 00:07:36;;;;;;;42.13;24.47;;;;;;;4.20;57.83;100945.94;6070906;23;100234;-78
2024/03/08 00:10:07;;;;;;;39.13;23.13;;;;;;;4.31;58.11;100964.16;6120781;23;97579;-78
2024/03/08 00:12:32;;;;;;;42.47;23.20;;;;;;;4.28;58.04;100957.22;6072169;23;96716;-82
2024/03/08 00:14:58;;;;;;;40.37;23.93;;;;;;;4.33;57.97;100959.81;6096111;23;96913;-78
2024/03/08 00:17:24;;;;;;;45.27;24.03;;;;;;;4.43;57.35;100955.53;6120642;23;97530;-78
2024/03/08 00:19:50;;;;;;;42.10;23.53;;;;;;;4.38;57.47;100952.91;6095823;23;97492;-78
2024/03/08 00:22:16;;;;;;;40.83;22.97;;;;;;;4.44;57.11;100965.91;6122635;22;96895;-78
2024/03/08 00:24:42;;;;;;;39.27;22.73;;;;;;;4.39;57.79;100964.16;6096864;23;96702;-79
2024/03/08 00:27:08;;;;;;;38.97;23.87;;;;;;;4.38;57.85;100959.84;6121057;23;97529;-78
2024/03/08 00:29:34;;;;;;;42.90;23.10;;;;;;;4.57;57.21;100955.50;6121014;23;97776;-78
2024/03/08 00:32:00;;;;;;;48.00;25.93;;;;;;;4.40;57.29;100947.72;6071393;23;97119;-78
2024/03/08 00:34:26;;;;;;;41.33;25.93;;;;;;;4.51;57.44;100957.25;6095973;23;97063;-78
2024/03/08 00:36:52;;;;;;;41.03;24.40;;;;;;;4.43;57.58;100961.56;6095936;23;100856;-78
2024/03/08 00:39:19;;;;;;;38.40;22.73;;;;;;;4.43;57.32;100955.53;6121196;23;97860;-78
2024/03/08 00:41:45;;;;;;;40.80;23.93;;;;;;;4.23;58.35;100965.88;6096681;23;97139;-78
2024/03/08 00:44:11;;;;;;;46.77;26.13;;;;;;;4.31;57.95;100951.16;6122689;22;97066;-78
2024/03/08 00:46:36;;;;;;;40.97;23.63;;;;;;;4.22;57.90;100946.81;6122168;22;97471;-78
2024/03/08 00:49:02;;;;;;;42.80;23.30;;;;;;;4.17;58.30;100943.34;6121412;23;97307;-78
2024/03/08 00:51:27;;;;;;;39.10;24.80;;;;;;;4.04;58.42;100954.56;6095700;23;96845;-78
2024/03/08 00:53:53;;;;;;;42.20;28.73;;;;;;;4.04;58.55;100945.06;6071914;23;96815;-79
2024/03/08 00:56:18;;;;;;;42.90;28.50;;;;;;;4.07;58.73;100945.06;6095198;23;100847;-78
2024/03/08 00:58:44;;;;;;;46.73;29.20;;;;;;;3.83;59.49;100935.44;6120767;23;97591;-78
2024/03/08 01:01:09;;;;;;;43.67;29.43;;;;;;;3.90;58.89;100938.06;6121010;23;97151;-78
2024/03/08 01:03:36;;;;;;;44.73;28.90;;;;;;;3.67;59.75;100943.19;6122831;23;97089;-77
2024/03/08 01:06:01;;;;;;;45.80;27.87;;;;;;;3.91;59.12;100929.41;6120345;23;98129;-78
2024/03/08 01:08:27;;;;;;;43.70;29.17;;;;;;;3.95;58.81;100944.13;6096058;23;100138;-78
2024/03/08 01:10:53;;;;;;;42.47;28.93;;;;;;;3.96;59.16;100935.50;6122832;23;97160;-80
2024/03/08 01:13:19;;;;;;;44.67;27.80;;;;;;;4.07;58.55;100921.69;6121715;23;96705;-78
2024/03/08 01:15:45;;;;;;;39.77;28.27;;;;;;;4.11;58.57;100921.69;6095606;23;100345;-78
2024/03/08 01:18:11;;;;;;;41.20;27.17;;;;;;;4.07;58.78;100918.19;6120997;23;97327;-78
2024/03/08 01:20:37;;;;;;;46.70;30.40;;;;;;;4.06;58.70;100922.50;6119542;23;96743;-78
2024/03/08 01:23:03;;;;;;;46.30;30.03;;;;;;;3.92;58.72;100931.16;6096280;23;97078;-78
2024/03/08 01:25:29;;;;;;;43.57;29.33;;;;;;;3.80;59.19;100921.59;6121890;23;97963;-78
2024/03/08 01:27:54;;;;;;;47.97;31.30;;;;;;;3.70;59.34;100920.69;6122203;22;97437;-78
2024/03/08 01:30:20;;;;;;;52.57;30.07;;;;;;;3.72;59.58;100921.53;6120934;23;97194;-78
2024/03/08 01:32:45;;;;;;;56.03;33.50;;;;;;;3.87;59.23;100918.16;6121055;23;97206;-78
2024/03/08 01:35:10;;;;;;;55.97;32.90;;;;;;;3.70;59.37;100914.66;6120215;23;97998;-78
2024/03/08 01:37:36;;;;;;;44.23;30.57;;;;;;;3.68;59.84;100918.94;6121237;23;96709;-78
2024/03/08 01:40:05;;;;;;;45.43;29.37;;;;;;;3.52;59.55;100900.72;6121057;23;96989;-78
2024/03/08 01:42:30;;;;;;;44.23;28.70;;;;;;;3.69;59.53;100913.75;6120834;23;97133;-78
2024/03/08 01:44:56;;;;;;;43.73;29.40;;;;;;;3.63;59.63;100900.75;6121136;22;97527;-78
2024/03/08 01:47:25;;;;;;;46.10;29.07;;;;;;;3.75;59.60;100907.72;6122047;22;97279;-78
2024/03/08 01:49:50;;;;;;;42.17;27.97;;;;;;;3.72;59.17;100894.72;6121109;23;96753;-78
2024/03/08 01:52:18;;;;;;;47.60;30.10;;;;;;;3.71;59.32;100900.78;6095458;23;97312;-78
2024/03/08 01:54:44;;;;;;;49.23;28.50;;;;;;;3.60;59.43;100904.19;6095665;23;100499;-78
2024/03/08 01:57:10;;;;;;;45.53;28.93;;;;;;;3.62;59.88;100904.22;6120567;23;97296;-78
2024/03/08 01:59:36;;;;;;;49.27;32.43;;;;;;;3.55;59.95;100905.94;6096125;23;96644;-78
2024/03/08 02:02:03;;;;;;;49.63;30.00;;;;;;;3.72;59.22;100903.38;6095579;23;96760;-78
2024/03/08 02:04:30;;;;;;;45.83;30.60;;;;;;;3.68;59.10;100900.78;6118262;23;97350;-80
2024/03/08 02:06:57;;;;;;;47.87;32.30;;;;;;;3.68;59.12;100905.97;6121125;23;97890;-79
2024/03/08 02:09:24;;;;;;;46.77;30.00;;;;;;;3.55;59.50;100899.84;6095252;23;96728;-78
2024/03/08 02:11:50;;;;;;;55.57;33.20;;;;;;;3.59;59.15;100886.91;6120504;23;96760;-78
2024/03/08 02:14:17;;;;;;;50.20;32.30;;;;;;;3.68;59.22;100887.78;6094392;23;97423;-79
2024/03/08 02:16:42;;;;;;;50.93;32.23;;;;;;;3.86;58.76;100899.09;6093493;23;97662;-78
2024/03/08 02:19:09;;;;;;;45.20;30.67;;;;;;;3.96;58.76;100888.75;6132096;22;96850;-78
2024/03/08 02:21:35;;;;;;;52.90;31.20;;;;;;;3.83;58.71;100895.63;6124046;22;97199;-78
2024/03/08 02:24:01;;;;;;;49.53;31.53;;;;;;;3.34;59.69;100883.31;6124146;22;97920;-78
2024/03/08 02:26:27;;;;;;;46.47;32.13;;;;;;;3.40;59.53;100896.34;6099703;22;100368;-78
2024/03/08 02:28:53;;;;;;;48.37;30.67;;;;;;;3.38;59.51;100886.81;6126539;22;96705;-78
2024/03/08 02:31:18;;;;;;;48.13;30.50;;;;;;;3.49;59.64;100892.94;6077436;22;97286;-77
2024/03/08 02:33:44;;;;;;;49.63;32.30;;;;;;;3.49;59.16;100890.34;6125570;22;98026;-80
2024/03/08 02:36:09;;;;;;;50.33;31.37;;;;;;;3.42;59.39;100888.56;6099987;22;97429;-78
2024/03/08 02:38:35;;;;;;;52.30;31.90;;;;;;;3.51;59.28;100890.31;6100476;22;96649;-78
2024/03/08 02:41:00;;;;;;;46.80;30.77;;;;;;;3.26;59.75;100886.75;6099806;22;97099;-78
2024/03/08 02:43:26;;;;;;;49.90;32.17;;;;;;;3.29;59.61;100891.97;6099900;22;100070;-79
2024/03/08 02:45:54;;;;;;;52.37;32.47;;;;;;;2.84;60.50;100883.06;6099224;22;100224;-79
2024/03/08 02:48:21;;;;;;;44.63;29.10;;;;;;;2.68;61.29;100882.09;6126490;22;97176;-78
2024/03/08 02:50:47;;;;;;;48.30;33.17;;;;;;;2.42;61.96;100881.91;6151529;22;97053;-78
2024/03/08 02:53:13;;;;;;;50.00;33.00;;;;;;;2.71;61.52;100882.13;6100394;22;97759;-77
2024/03/08 02:55:41;;;;;;;48.70;31.60;;;;;;;2.73;61.26;100870.00;6124597;22;97759;-78
2024/03/08 02:58:10;;;;;;;46.43;32.43;;;;;;;2.66;61.12;100876.03;6100752;22;97093;-78
2024/03/08 03:00:37;;;;;;;45.47;30.23;;;;;;;2.63;61.12;100869.09;6126607;22;97191;-78
2024/03/08 03:03:03;;;;;;;42.57;30.00;;;;;;;2.84;60.73;100872.69;6125739;22;96743;-78
2024/03/08 03:05:32;;;;;;;51.53;33.03;;;;;;;2.89;60.05;100863.22;6099773;22;97219;-78
2024/03/08 03:07:58;;;;;;;46.07;30.40;;;;;;;2.95;59.92;100874.47;6101219;22;96598;-78
2024/03/08 03:10:24;;;;;;;43.77;30.70;;;;;;;3.09;59.66;100868.53;6122907;22;96695;-80
2024/03/08 03:12:49;;;;;;;50.83;32.90;;;;;;;3.16;59.60;100872.88;6124772;22;97794;-79
2024/03/08 03:15:16;;;;;;;55.50;33.73;;;;;;;3.05;59.73;100879.72;6124234;22;100183;-78
2024/03/08 03:17:50;;;;;;;55.83;35.73;;;;;;;2.75;60.47;100867.44;6100502;22;96663;-77
2024/03/08 03:20:22;;;;;;;52.13;34.53;;;;;;;2.73;60.56;100867.41;6094949;23;96806;-83
2024/03/08 03:22:56;;;;;;;51.87;34.07;;;;;;;2.45;61.31;100871.56;6120766;23;97400;-78
2024/03/08 03:25:35;;;;;;;48.60;32.63;;;;;;;2.28;61.63;100860.19;6095743;23;100543;-78
2024/03/08 03:28:04;;;;;;;53.37;34.97;;;;;;;2.26;62.07;100870.53;6120467;23;97118;-78
2024/03/08 03:30:32;;;;;;;47.27;27.87;;;;;;;2.43;61.60;100863.75;6120672;23;97247;-78
2024/03/08 03:33:02;;;;;;;51.10;30.93;;;;;;;2.55;61.23;100864.72;6096325;23;100318;-77
2024/03/08 03:35:29;;;;;;;49.03;28.20;;;;;;;2.63;61.35;100869.09;6070983;23;100674;-78
2024/03/08 03:38:06;;;;;;;48.53;28.90;;;;;;;2.22;61.89;100861.00;6121742;23;96676;-81
2024/03/08 03:40:42;;;;;;;47.83;27.53;;;;;;;2.24;62.06;100873.13;6075114;23;97081;-78
2024/03/08 03:43:09;;;;;;;53.83;30.17;;;;;;;2.14;62.71;100865.25;6121546;23;97368;-77
2024/03/08 03:45:35;;;;;;;56.00;30.27;;;;;;;2.05;62.86;100871.19;6096493;23;97416;-77
2024/03/08 03:48:06;;;;;;;49.70;29.80;;;;;;;1.87;63.21;100866.72;6120831;23;97161;-78
2024/03/08 03:50:34;;;;;;;56.67;35.83;;;;;;;1.95;63.22;100864.19;6121320;23;96632;-84
2024/03/08 03:52:59;;;;;;;58.23;36.17;;;;;;;1.93;62.96;100864.19;6121294;23;97425;-79
2024/03/08 03:55:25;;;;;;;48.50;36.23;;;;;;;1.85;63.24;100854.59;6121102;23;97836;-80
2024/03/08 03:57:51;;;;;;;51.97;34.20;;;;;;;1.90;63.56;100860.69;6096868;23;96724;-78
2024/03/08 04:00:16;;;;;;;54.97;37.37;;;;;;;1.77;63.96;100880.41;6121313;23;96871;-81
2024/03/08 04:02:42;;;;;;;52.43;33.73;;;;;;;1.56;64.30;100874.13;6096264;23;100150;-78
2024/03/08 04:05:09;;;;;;;52.07;32.93;;;;;;;1.52;64.65;100864.63;6121430;23;97186;-78
2024/03/08 04:07:35;;;;;;;60.17;32.00;;;;;;;1.62;64.72;100875.06;6121695;23;96763;-80
2024/03/08 04:10:06;;;;;;;51.07;33.27;;;;;;;1.94;63.73;100876.25;6096514;23;96992;-78
2024/03/08 04:12:34;;;;;;;55.57;33.60;;;;;;;1.86;63.53;100864.97;6120632;23;97407;-78
2024/03/08 04:15:00;;;;;;;51.70;34.73;;;;;;;2.04;63.11;100872.06;6095466;23;98990;-78
2024/03/08 04:17:25;;;;;;;54.93;33.90;;;;;;;2.06;63.19;100872.94;6121646;23;96960;-80
2024/03/08 04:19:51;;;;;;;46.53;30.80;;;;;;;2.08;63.18;100872.97;6100927;22;97109;-77
2024/03/08 04:22:17;;;;;;;50.37;33.17;;;;;;;2.22;62.63;100855.81;6076434;22;100388;-77
2024/03/08 04:24:44;;;;;;;55.37;33.47;;;;;;;2.16;62.44;100864.41;6125686;22;99117;-77
2024/03/08 04:27:09;;;;;;;53.53;31.70;;;;;;;2.05;62.65;100868.59;6101937;22;96799;-79
2024/03/08 04:29:35;;;;;;;48.60;31.73;;;;;;;1.97;62.90;100865.94;6126963;22;97086;-77
2024/03/08 04:32:03;;;;;;;50.53;31.83;;;;;;;1.88;63.05;100857.22;6126151;22;97436;-78
2024/03/08 04:34:29;;;;;;;50.13;32.20;;;;;;;1.69;64.02;100861.34;6100787;22;100469;-78
2024/03/08 04:36:57;;;;;;;47.83;30.57;;;;;;;1.85;63.38;100863.22;6076599;22;96933;-84
2024/03/08 04:39:23;;;;;;;50.60;33.07;;;;;;;1.75;63.90;100861.41;6101074;22;96781;-77
2024/03/08 04:41:49;;;;;;;52.20;34.40;;;;;;;1.62;64.03;100867.31;6100749;22;97876;-78
2024/03/08 04:44:15;;;;;;;50.63;32.80;;;;;;;1.54;64.09;100864.63;6100628;22;101064;-76
2024/03/08 04:46:41;;;;;;;51.57;30.13;;;;;;;1.44;64.45;100861.06;6101316;22;97191;-76
2024/03/08 04:49:07;;;;;;;50.70;33.00;;;;;;;1.73;64.00;100866.56;6101295;22;97020;-76
2024/03/08 04:51:33;;;;;;;48.50;27.63;;;;;;;1.72;63.52;100856.22;6100420;22;100675;-76
2024/03/08 04:53:59;;;;;;;51.77;27.73;;;;;;;1.99;63.11;100860.78;6101191;22;99417;-76
2024/03/08 04:56:25;;;;;;;41.13;24.43;;;;;;;1.95;62.83;100859.00;6101511;22;96876;-80
2024/03/08 04:58:51;;;;;;;50.77;28.17;;;;;;;1.96;62.95;100860.75;6152124;22;97068;-77
2024/03/08 05:01:17;;;;;;;50.30;27.07;;;;;;;1.79;62.93;100852.81;6124618;22;97459;-77
2024/03/08 05:03:42;;;;;;;47.07;25.40;;;;;;;1.93;63.17;100863.31;6101046;22;97337;-76
2024/03/08 05:06:08;;;;;;;56.90;27.47;;;;;;;2.02;62.89;100876.34;6152163;22;96969;-76
2024/03/08 05:08:34;;;;;;;45.67;26.20;;;;;;;1.99;62.98;100863.38;6126069;22;97213;-76
2024/03/08 05:11:03;;;;;;;47.80;25.93;;;;;;;1.68;63.71;100870.81;6124851;22;98343;-76
2024/03/08 05:13:30;;;;;;;54.20;28.63;;;;;;;1.45;64.54;100872.28;6100579;22;100037;-76
2024/03/08 05:15:58;;;;;;;47.47;27.67;;;;;;;1.60;64.02;100875.06;6100478;22;97123;-77
2024/03/08 05:18:24;;;;;;;48.97;27.97;;;;;;;1.59;64.37;100861.22;6100970;22;96940;-77
2024/03/08 05:20:50;;;;;;;45.53;27.43;;;;;;;1.63;64.07;100859.56;6124417;22;97411;-78
2024/03/08 05:23:16;;;;;;;48.43;27.67;;;;;;;1.87;63.70;100863.25;6124914;22;100789;-77
2024/03/08 05:25:41;;;;;;;56.77;28.87;;;;;;;1.90;63.64;100858.13;6098053;22;97164;-81
2024/03/08 05:28:08;;;;;;;48.67;25.33;;;;;;;1.94;63.07;100857.28;6124677;22;96666;-79
2024/03/08 05:30:35;;;;;;;48.97;27.23;;;;;;;2.11;62.69;100855.72;6099701;22;100308;-80
2024/03/08 05:33:01;;;;;;;48.13;26.00;;;;;;;2.12;62.54;100861.75;6124837;22;97627;-78
2024/03/08 05:35:27;;;;;;;51.97;27.60;;;;;;;2.14;62.49;100862.66;6124368;22;96627;-77
2024/03/08 05:37:52;;;;;;;49.23;25.87;;;;;;;2.08;62.73;100847.06;6099703;22;97073;-79
2024/03/08 05:40:19;;;;;;;50.17;25.63;;;;;;;2.07;62.67;100856.56;6124023;22;97394;-81
2024/03/08 05:42:44;;;;;;;43.67;25.60;;;;;;;1.92;63.26;100864.16;6100829;22;99184;-78
2024/03/08 05:45:10;;;;;;;48.00;25.97;;;;;;;2.06;62.70;100869.47;6099804;22;97208;-79
2024/03/08 05:47:36;;;;;;;51.27;26.07;;;;;;;1.97;62.88;100860.75;6124910;22;97099;-78
2024/03/08 05:50:02;;;;;;;48.27;25.77;;;;;;;2.23;62.40;100868.78;6124270;22;97327;-78
2024/03/08 05:52:27;;;;;;;45.87;26.30;;;;;;;2.10;62.74;100863.50;6125730;22;97179;-77
2024/03/08 05:54:53;;;;;;;49.77;26.10;;;;;;;2.06;62.44;100865.16;6153053;22;96850;-79
2024/03/08 05:57:18;;;;;;;45.03;26.70;;;;;;;2.15;62.52;100865.28;6101399;22;96781;-77
2024/03/08 05:59:44;;;;;;;45.90;26.10;;;;;;;2.24;62.22;100874.81;6101054;22;100549;-78
2024/03/08 06:02:10;;;;;;;56.00;30.27;;;;;;;2.30;61.61;100856.75;6100871;22;100049;-79
2024/03/08 06:04:35;;;;;;;48.33;26.90;;;;;;;2.07;62.54;100873.81;6101299;22;97229;-81
2024/03/08 06:07:03;;;;;;;47.10;26.30;;;;;;;2.08;62.62;100860.88;6125537;22;97046;-78
2024/03/08 06:09:29;;;;;;;51.83;27.97;;;;;;;1.94;62.45;100852.97;6100296;22;100605;-80
2024/03/08 06:11:54;;;;;;;42.57;24.23;;;;;;;2.34;61.63;100868.88;6100690;22;100590;-78
2024/03/08 06:14:20;;;;;;;45.13;25.77;;;;;;;2.36;61.69;100869.75;6125121;22;97265;-80
2024/03/08 06:16:46;;;;;;;47.43;25.50;;;;;;;2.34;61.58;100865.41;6147751;22;96961;-81
2024/03/08 06:19:12;;;;;;;45.87;25.37;;;;;;;2.37;62.03;100888.75;6098741;22;100113;-83
2024/03/08 06:21:38;;;;;;;44.50;26.00;;;;;;;2.42;61.74;100879.31;6098274;22;100902;-82
2024/03/08 06:24:04;;;;;;;47.37;27.13;;;;;;;2.66;61.11;100887.25;6099782;22;97368;-83
2024/03/08 06:26:30;;;;;;;42.87;24.57;;;;;;;2.49;60.89;100873.31;6150993;22;97243;-83
2024/03/08 06:28:55;;;;;;;41.83;25.40;;;;;;;2.55;61.53;100881.13;6098423;22;97373;-83
2024/03/08 06:31:21;;;;;;;51.23;27.57;;;;;;;2.85;61.23;100870.13;6121734;22;97629;-83
2024/03/08 06:33:46;;;;;;;49.93;26.73;;;;;;;3.28;59.80;100874.66;6149366;22;96741;-83
2024/03/08 06:36:12;;;;;;;46.17;25.47;;;;;;;3.39;59.04;100880.75;6124651;22;96824;-82
2024/03/08 06:38:42;;;;;;;45.00;25.47;;;;;;;3.62;58.99;100875.66;6120746;22;97572;-83
2024/03/08 06:41:09;;;;;;;44.97;27.50;;;;;;;3.58;58.59;100882.56;6099757;22;97288;-82
2024/03/08 06:43:34;;;;;;;41.67;25.47;;;;;;;3.90;57.87;100871.41;6124094;22;97255;-84
2024/03/08 06:46:00;;;;;;;52.60;25.90;;;;;;;4.06;57.14;100860.16;6123999;22;97410;-84
2024/03/08 06:48:25;;;;;;;45.13;26.03;;;;;;;4.32;56.93;100854.13;6100147;22;100099;-85
2024/03/08 06:50:51;;;;;;;45.33;26.43;;;;;;;4.28;56.76;100862.78;6099377;22;97635;-83
2024/03/08 06:53:19;;;;;;;45.73;25.67;;;;;;;4.40;56.20;100861.94;6151368;22;96672;-84
2024/03/08 06:55:45;;;;;;;51.30;29.50;;;;;;;4.37;56.10;100864.53;6099648;22;97398;-82
2024/03/08 06:58:11;;;;;;;47.43;28.77;;;;;;;4.29;56.58;100854.97;6099267;22;100566;-82
2024/03/08 07:00:37;;;;;;;49.83;29.53;;;;;;;4.88;55.88;100866.19;6124187;22;97418;-83
2024/03/08 07:03:03;;;;;;;47.30;28.33;;;;;;;5.31;54.94;100865.22;6124124;22;96723;-83
2024/03/08 07:05:32;;;;;;;49.87;30.40;;;;;;;5.61;53.73;100862.50;6099326;22;96921;-85
2024/03/08 07:07:58;;;;;;;52.28;29.45;;;;;;;5.53;53.34;100860.78;6150670;22;97680;-79
2024/03/08 07:10:26;;;;;;;47.70;27.85;;;;;;;5.86;53.13;100857.13;6124376;22;97904;-80
2024/03/08 07:12:53;;;;;;;52.72;28.13;;;;;;;5.83;52.94;100857.16;6151614;22;96655;-78
2024/03/08 07:15:19;;;;;;;47.10;28.05;;;;;;;6.34;52.39;100855.94;6150791;22;96591;-78
2024/03/08 07:17:45;;;;;;;43.67;26.90;;;;;;;6.30;51.67;100869.88;6151813;22;97401;-78
2024/03/08 07:20:13;;;;;;;44.30;28.40;;;;;;;6.51;51.92;100861.00;6125591;22;100725;-75
2024/03/08 07:22:39;;;;;;;46.53;27.90;;;;;;;6.98;51.45;100859.69;6125570;22;97060;-81
2024/03/08 07:27:37;;;;;;;47.95;27.58;;;;;;;7.63;49.36;100848.47;6125171;22;98311;-82
2024/03/08 07:30:03;;;;;;;42.58;26.75;;;;;;;8.00;48.98;100861.88;6076909;22;100911;-81
2024/03/08 07:32:29;;;;;;;43.97;27.45;;;;;;;7.71;48.64;100855.31;6101272;22;96728;-81
2024/03/08 07:34:58;;;;;;;46.45;28.02;;;;;;;7.38;49.03;100867.06;6126010;22;97243;-81
2024/03/08 07:37:24;;;;;;;45.25;26.55;;;;;;;7.81;48.46;100850.81;6151385;22;97467;-80
2024/03/08 07:39:49;;;;;;;51.95;28.75;;;;;;;7.67;48.75;100852.75;6100156;22;98365;-81
2024/03/08 07:42:16;;;;;;;41.70;26.02;;;;;;;8.21;48.17;100855.47;6124639;22;97112;-81
2024/03/08 07:44:42;;;;;;;46.70;27.45;;;;;;;8.94;47.14;100855.09;6101205;22;97200;-78
2024/03/08 07:47:09;;;;;;;42.97;27.25;;;;;;;8.79;46.29;100853.63;6124453;22;97892;-81
2024/03/08 07:49:37;;;;;;;42.75;27.60;;;;;;;8.35;47.02;100852.63;6125498;22;97354;-81
2024/03/08 07:52:07;;;;;;;42.50;27.13;;;;;;;8.61;47.36;100834.75;6099692;22;97128;-82
2024/03/08 07:54:34;;;;;;;48.35;26.50;;;;;;;9.10;45.78;100845.19;6100168;22;97134;-82
2024/03/08 07:57:01;;;;;;;45.80;29.08;;;;;;;9.04;46.00;100844.41;6098184;22;100749;-81
2024/03/08 07:59:27;;;;;;;48.92;28.38;;;;;;;9.69;45.23;100843.09;6124278;22;97848;-84
2024/03/08 08:01:52;;;;;;;47.40;29.20;;;;;;;10.34;44.29;100840.72;6123519;22;97324;-83
2024/03/08 08:04:19;;;;;;;43.08;28.27;;;;;;;10.82;44.09;100842.09;6124330;22;96794;-83
2024/03/08 08:06:44;;;;;;;46.00;27.88;;;;;;;11.10;42.49;100852.72;6123564;22;97414;-83
2024/03/08 08:09:14;;;;;;;45.05;27.23;;;;;;;11.09;42.86;100848.41;6099704;22;97848;-84
2024/03/08 08:11:43;;;;;;;44.25;26.88;;;;;;;10.91;42.25;100841.88;6098657;22;96966;-84
2024/03/08 08:14:09;;;;;;;39.80;26.13;;;;;;;11.22;42.40;100846.28;6098732;22;97060;-84
2024/03/08 08:16:41;;;;;;;41.50;26.40;;;;;;;11.01;42.30;100853.00;6096508;22;100307;-83
2024/03/08 08:19:07;;;;;;;;;;;;;;;11.57;41.74;100840.84;6075667;22;100008;-84
2024/03/08 08:21:38;;;;;;;58.67;27.85;;;;;;;11.03;41.59;100843.31;6073032;22;97231;-83
2024/03/08 08:24:04;;;;;;;42.38;28.15;;;;;;;10.58;41.99;100841.84;6124205;22;96748;-83
2024/03/08 08:26:30;;;;;;;46.17;29.00;;;;;;;10.85;42.54;100842.06;6098310;22;100253;-83
2024/03/08 08:28:56;;;;;;;49.58;31.63;;;;;;;11.29;41.69;100838.19;6098967;22;97294;-83
2024/03/08 08:31:21;;;;;;;41.03;29.42;;;;;;;12.27;40.26;100826.41;6099245;22;97089;-83
2024/03/08 08:33:48;;;;;;;45.58;28.73;;;;;;;12.37;39.75;100829.63;6124019;22;97334;-83
2024/03/08 08:36:14;;;;;;;44.38;30.35;;;;;;;11.99;39.84;100837.00;6098768;22;100709;-83
2024/03/08 08:38:42;;;;;;;42.95;27.73;;;;;;;12.31;39.67;100827.19;6098868;22;98713;-83
2024/03/08 08:41:09;;;;;;;44.55;30.02;;;;;;;13.03;38.94;100830.84;6097867;22;96902;-83
2024/03/08 08:43:35;;;;;;;40.70;28.42;;;;;;;13.21;38.19;100833.72;6150603;22;97194;-82
2024/03/08 08:46:01;;;;;;;37.28;26.92;;;;;;;12.27;39.25;100815.03;6098526;22;100523;-83
2024/03/08 08:48:28;;;;;;;41.63;29.63;;;;;;;12.08;39.30;100830.56;6099077;22;97399;-82
2024/03/08 08:50:53;;;;;;;35.85;25.60;;;;;;;12.07;39.74;100834.97;6123684;22;97144;-82
2024/03/08 08:53:19;;;;;;;38.38;26.52;;;;;;;12.97;39.26;100817.84;6123781;22;96760;-83
2024/03/08 08:55:45;;;;;;;38.92;26.15;;;;;;;13.49;38.25;100823.00;6123387;22;97773;-83
2024/03/08 08:58:11;;;;;;;37.25;26.77;;;;;;;14.74;36.29;100818.84;6112853;22;97242;-82
2024/03/08 09:00:37;;;;;;;34.58;25.08;;;;;;;14.07;36.37;100812.78;6113143;22;97465;-83
2024/03/08 09:03:02;;;;;;;35.70;25.35;;;;;;;14.09;36.03;100810.97;6116006;22;97069;-83
2024/03/08 09:05:28;;;;;;;42.60;25.48;;;;;;;14.41;35.82;100806.97;6115237;22;97844;-83
2024/03/08 09:07:54;;;;;;;37.67;25.63;;;;;;;13.85;36.22;100818.09;6088615;22;97352;-80
2024/03/08 09:10:21;;;;;;;38.00;26.63;;;;;;;14.41;36.17;100814.91;6088770;22;97217;-79
2024/03/08 09:12:47;;;;;;;35.53;24.45;;;;;;;15.13;34.88;100813.59;6115938;22;97278;-80
2024/03/08 09:15:12;;;;;;;34.50;25.50;;;;;;;15.28;34.44;100820.81;6114731;22;97389;-80
2024/03/08 09:17:41;;;;;;;32.63;24.77;;;;;;;15.62;33.96;100813.97;6089569;22;97242;-80
2024/03/08 09:20:08;;;;;;;36.40;24.02;;;;;;;15.74;33.62;100815.22;6085034;23;97306;-80
2024/03/08 09:22:34;;;;;;;34.70;26.92;;;;;;;14.70;34.96;100824.25;6110503;23;97355;-81
2024/03/08 09:25:00;;;;;;;33.95;24.05;;;;;;;14.58;34.89;100814.22;6109899;23;98040;-80
2024/03/08 09:27:26;;;;;;;39.53;27.23;;;;;;;14.87;35.01;100802.41;6110078;23;100866;-81
2024/03/08 09:29:52;;;;;;;36.80;25.35;;;;;;;15.62;33.58;100791.03;6082805;23;97393;-81
2024/03/08 09:32:17;;;;;;;39.38;27.27;;;;;;;15.86;32.97;100785.50;6111070;23;97193;-82
2024/03/08 09:34:43;;;;;;;39.25;28.02;;;;;;;14.54;34.79;100788.00;6110883;23;98054;-82
2024/03/08 09:37:09;;;;;;;34.80;26.30;;;;;;;15.71;33.96;100780.97;6109153;23;100670;-81
2024/03/08 09:39:34;;;;;;;31.75;23.73;;;;;;;15.22;34.32;100796.44;6107967;23;97569;-83
2024/03/08 09:42:00;;;;;;;33.17;24.35;;;;;;;15.27;34.28;100795.31;6086277;23;97880;-82
2024/03/08 09:44:28;;;;;;;31.35;24.63;;;;;;;15.41;33.43;100776.13;6112506;22;97505;-82
2024/03/08 09:46:55;;;;;;;33.90;25.75;;;;;;;14.79;34.54;100774.59;6111150;23;97344;-83
2024/03/08 09:49:20;;;;;;;38.05;26.00;;;;;;;14.86;34.66;100774.22;6110142;23;97381;-83
2024/03/08 09:51:46;;;;;;;33.97;26.15;;;;;;;15.89;33.42;100761.53;6110166;23;97463;-83
2024/03/08 09:54:12;;;;;;;32.45;25.23;;;;;;;17.38;31.52;100769.69;6108247;23;99658;-83
2024/03/08 09:56:41;;;;;;;35.92;24.67;;;;;;;17.26;31.84;100765.06;6110963;23;97442;-83
2024/03/08 10:01:56;;;;;;;32.55;24.67;;;;;;;15.35;33.78;100772.00;6110335;23;97175;-82
2024/03/08 10:04:25;;;;;;;33.20;25.30;;;;;;;14.32;35.35;100757.19;6109428;23;97673;-82
2024/03/08 10:06:52;;;;;;;31.02;23.90;;;;;;;15.38;34.29;100753.31;6110750;23;97372;-83
2024/03/08 10:09:17;;;;;;;32.42;25.23;;;;;;;14.60;34.77;100745.47;6109998;23;97320;-82
2024/03/08 10:11:43;;;;;;;30.20;24.50;;;;;;;14.87;34.19;100772.47;6109192;23;97222;-82
2024/03/08 10:14:10;;;;;;;38.97;23.77;;;;;;;14.06;35.19;100763.56;6112689;23;97792;-82
2024/03/08 10:16:36;;;;;;;32.25;24.15;;;;;;;13.20;36.52;100766.94;6085951;23;100371;-82
2024/03/08 10:19:01;;;;;;;32.88;23.83;;;;;;;12.99;36.79;100757.19;6116380;22;97000;-82
2024/03/08 10:21:27;;;;;;;31.30;22.92;;;;;;;12.19;37.64;100746.88;6141145;22;97332;-81
2024/03/08 10:23:53;;;;;;;38.53;23.08;;;;;;;11.86;39.15;100768.09;6115551;22;97791;-82
2024/03/08 10:26:21;;;;;;;46.88;29.42;;;;;;;11.64;39.46;100760.03;6114199;22;98295;-79
2024/03/08 10:28:48;;;;;;;48.33;30.35;;;;;;;11.88;39.25;100762.81;6141866;22;97167;-82
2024/03/08 10:31:17;;;;;;;33.85;24.27;;;;;;;11.43;39.53;100758.94;6114694;22;97292;-80
2024/03/08 10:33:44;;;;;;;63.15;35.13;;;;;;;11.28;40.15;100764.63;6115077;22;97726;-78
2024/03/08 10:36:10;;;;;;;39.85;26.08;;;;;;;11.35;40.41;100762.69;6115418;22;97704;-82
2024/03/08 10:38:38;;;;;;;33.05;23.40;;;;;;;11.29;40.17;100764.59;6117124;22;97130;-81
2024/03/08 10:41:06;;;;;;;44.85;26.77;;;;;;;11.49;39.52;100768.38;6116462;22;97464;-80
2024/03/08 10:43:37;;;;;;;35.53;24.13;;;;;;;11.17;40.38;100758.81;6115746;22;97904;-83
2024/03/08 10:46:18;;;;;;;31.93;22.13;;;;;;;10.68;40.81;100747.13;6112954;22;97894;-84
2024/03/08 10:48:44;;;;;;;28.75;20.60;;;;;;;10.26;40.81;100768.31;6142635;22;97375;-82
2024/03/08 10:51:11;;;;;;;29.42;20.75;;;;;;;10.40;40.90;100755.72;6088448;22;97940;-81
2024/03/08 10:53:41;;;;;;;54.03;32.05;;;;;;;10.64;40.80;100752.41;6088278;22;101147;-84
2024/03/08 10:56:07;;;;;;;127.50;62.28;;;;;;;10.79;40.42;100753.78;6141435;22;98416;-83
2024/03/08 10:58:34;;;;;;;60.50;34.25;;;;;;;10.96;40.63;100757.69;6141094;22;97160;-82
2024/03/08 11:01:00;;;;;;;35.22;21.95;;;;;;;10.49;40.79;100746.75;6112648;22;97169;-84
2024/03/08 11:03:41;;;;;;;30.35;22.75;;;;;;;10.46;41.51;100750.31;6089287;22;98594;-84
2024/03/08 11:06:08;;;;;;;28.23;20.03;;;;;;;10.28;42.01;100742.94;6089950;22;100733;-82
2024/03/08 11:08:36;;;;;;;36.35;22.42;;;;;;;10.55;40.89;100733.44;6110463;22;97036;-84
2024/03/08 11:11:02;;;;;;;31.58;19.17;;;;;;;10.47;41.35;100735.41;6112260;22;97818;-82
2024/03/08 11:13:45;;;;;;;29.05;20.05;;;;;;;10.54;42.10;100723.84;6113878;22;97898;-81
2024/03/08 11:16:12;;;;;;;42.88;25.70;;;;;;;10.90;41.35;100727.19;6115107;22;97381;-82